< Cyclone 200902 2009 Season Cyclone 200906 >
Cyclone 200903 (Billy)
General InformationTrack Information on Google MapsDetailed Wind InformationList of All Images || ResourceGoogle EarthGE AnimationAtom FeedGeoJSON
Detalied Best Track (Time Zone = UTC)
Year Month Day Hour Lat. Long. Pressure (hPa) Wind (kt) Class Image Chart
2008 12 15 00 -10.1 128.7 1005 10 2 Image --
2008 12 15 06 -10.2 128.6 1005 10 2 Image --
2008 12 15 12 -10.2 128.4 1005 15 2 Image --
2008 12 15 18 -10.3 128.1 1005 15 2 Image --
2008 12 16 00 -10.5 127.7 1005 15 2 Image --
2008 12 16 06 -10.9 127.5 1005 20 2 Image --
2008 12 16 12 -11.2 127.3 1005 20 2 Image --
2008 12 16 18 -11.7 127.3 1005 20 2 Image --
2008 12 17 00 -12.2 127.2 1005 20 2 Image --
2008 12 17 06 -12.6 127.5 1004 20 2 Image --
2008 12 17 12 -12.7 127.5 1004 20 2 Image --
2008 12 17 18 -13.1 127.8 1002 25 2 Image --
2008 12 18 00 -13.7 128.3 1000 25 2 Image --
2008 12 18 03 -13.9 128.5 1000 25 2 Image --
2008 12 18 06 -14.0 128.6 997 30 2 Image --
2008 12 18 12 -14.4 128.8 993 40 3 Image --
2008 12 18 15 -14.5 128.8 992 40 3 Image --
2008 12 18 18 -14.5 128.8 991 40 3 Image --
2008 12 18 21 -14.4 128.8 988 45 3 Image --
2008 12 19 00 -14.3 128.8 988 45 3 Image --
2008 12 19 03 -14.4 128.6 988 45 3 Image --
2008 12 19 06 -14.4 128.7 983 50 4 Image --
2008 12 19 09 -14.4 128.7 982 50 4 Image --
2008 12 19 12 -14.5 128.6 982 50 4 Image --
2008 12 19 15 -14.7 128.4 984 50 4 Image --
2008 12 19 18 -14.8 128.1 986 50 4 Image --
2008 12 19 21 -14.8 128.0 987 50 4 Image --
2008 12 20 00 -14.8 127.9 990 35 3 Image --
2008 12 20 06 -15.0 127.4 994 30 2 Image --
2008 12 20 12 -15.1 126.9 996 30 2 Image --
2008 12 20 18 -15.0 126.3 996 30 2 Image --
2008 12 21 00 -15.0 126.0 998 30 2 Image --
2008 12 21 06 -15.0 125.8 998 30 2 Image --
2008 12 21 12 -15.2 125.5 998 30 2 Image --
2008 12 21 18 -15.3 125.2 998 30 2 Image --
2008 12 22 00 -15.5 124.7 996 35 3 Image --
2008 12 22 06 -15.8 124.0 997 35 3 Image --
2008 12 22 12 -16.2 123.4 996 35 3 Image --
2008 12 22 18 -16.5 122.8 996 35 3 Image --
2008 12 23 00 -17.1 122.2 989 45 3 Image --
2008 12 23 06 -17.5 121.2 986 50 4 Image --
2008 12 23 12 -17.7 120.8 985 50 4 Image --
2008 12 23 18 -17.8 120.3 978 60 4 Image --
2008 12 24 00 -17.7 119.9 976 65 5 Image --
2008 12 24 06 -17.7 119.2 964 80 5 Image --
2008 12 24 12 -17.7 118.6 955 90 5 Image --
2008 12 24 18 -17.5 117.9 950 95 5 Image --
2008 12 25 00 -17.4 117.3 955 90 5 Image --
2008 12 25 06 -17.2 116.6 955 90 5 Image --
2008 12 25 12 -16.8 116.0 955 90 5 Image --
2008 12 25 18 -16.2 115.3 960 85 5 Image --
2008 12 26 00 -16.0 114.8 964 80 5 Image --
2008 12 26 06 -15.7 114.3 964 80 5 Image --
2008 12 26 12 -15.6 113.9 970 70 5 Image --
2008 12 26 18 -15.3 113.6 978 60 4 Image --
2008 12 27 00 -15.2 113.4 981 55 4 Image --
2008 12 27 06 -15.1 112.9 985 50 4 Image --
2008 12 27 12 -15.0 112.8 985 50 4 Image --
2008 12 27 18 -14.9 112.9 992 40 3 Image --
2008 12 28 00 -14.8 113.0 997 30 2 Image --
2008 12 28 06 -15.4 112.7 999 30 2 Image --
2008 12 28 12 -16.0 112.6 1001 25 2 Image --
2008 12 28 18 -16.3 112.0 1001 25 2 Image --
2008 12 29 00 -16.5 111.4 1001 25 2 Image --
2008 12 29 06 -16.6 110.6 1002 25 2 Image --
2008 12 29 12 -16.8 109.8 1002 25 2 Image --
2008 12 29 18 -16.8 108.7 1002 25 2 Image --
2008 12 30 00 -16.8 108.2 1001 25 2 Image --
2008 12 30 06 -16.7 107.7 1001 25 2 Image --
2008 12 30 12 -16.5 107.4 1001 25 2 Image --
2008 12 30 18 -16.4 106.7 1004 20 2 Image --
2008 12 31 00 -16.4 106.0 1005 20 2 Image --
2008 12 31 06 -15.8 105.2 1005 20 2 Image --
2008 12 31 12 -15.8 104.1 1005 20 2 Image --
2008 12 31 18 -15.3 103.2 1005 15 2 Image --
2009 1 1 00 -14.9 102.3 1005 15 2 Image --
2009 1 1 06 -14.9 101.5 1005 15 2 Image --
2009 1 1 12 -14.8 100.6 1005 15 2 Image --
2009 1 1 18 -14.5 99.3 1005 15 2 Image --
2009 1 2 00 -14.2 98.3 1005 15 2 Image --
2009 1 2 06 -13.8 97.1 1005 15 2 Image --
2009 1 2 12 -13.6 96.0 1006 15 2 Image --
2009 1 2 18 -13.4 94.6 1006 15 2 Image --
2009 1 3 00 -13.1 93.3 1006 15 2 Image --
2009 1 3 06 -12.9 92.0 1006 15 2 Image --
2009 1 3 12 -12.6 91.3 1005 15 2 Image --
2009 1 3 18 -12.5 90.2 1005 15 2 Image --
< Cyclone 200902 2009 Season Cyclone 200906 >

Help